createdAt,value
2018-02-18T00:00:34.280Z,4.49
2018-02-18T00:02:28.887Z,4.67
2018-02-18T00:03:29.308Z,4.60
2018-02-18T00:05:24.882Z,4.41
2018-02-18T00:06:25.294Z,4.42
2018-02-18T00:08:19.898Z,4.30
2018-02-18T00:09:20.296Z,4.44
2018-02-18T00:11:14.921Z,4.35
2018-02-18T00:12:15.317Z,4.32
2018-02-18T00:14:10.461Z,4.28
2018-02-18T00:18:18.894Z,4.49
2018-02-18T00:19:19.288Z,4.48
2018-02-18T00:21:31.967Z,4.48
2018-02-18T00:24:06.384Z,4.28
2018-02-18T00:25:06.812Z,4.26
2018-02-18T00:27:01.412Z,4.31
2018-02-18T00:28:01.841Z,4.48
2018-02-18T00:29:56.402Z,4.26
2018-02-18T00:32:36.343Z,4.32
2018-02-18T00:33:36.749Z,4.49
2018-02-18T00:37:04.423Z,4.67
2018-02-18T00:39:40.299Z,4.80
2018-02-18T00:40:40.697Z,4.77
2018-02-18T00:42:35.792Z,4.59
2018-02-18T00:43:36.179Z,4.82
2018-02-18T00:47:18.665Z,4.40
2018-02-18T00:48:19.074Z,4.42
2018-02-18T00:50:13.660Z,4.31
2018-02-18T00:52:47.219Z,4.19
2018-02-18T00:53:47.597Z,4.22
2018-02-18T00:55:43.156Z,4.48
2018-02-18T00:56:43.588Z,4.40
2018-02-18T00:58:50.945Z,4.53
2018-02-18T00:59:51.371Z,4.40
2018-02-18T01:00:51.644Z,4.35
2018-02-18T01:02:46.231Z,4.41
2018-02-18T01:03:46.656Z,4.41
2018-02-18T01:05:41.241Z,4.31
2018-02-18T01:06:41.651Z,4.44
2018-02-18T01:08:36.268Z,4.45
2018-02-18T01:09:36.705Z,4.56
2018-02-18T01:13:05.323Z,4.52
2018-02-18T01:14:05.729Z,4.31
2018-02-18T01:16:01.244Z,4.14
2018-02-18T01:17:07.902Z,4.20
2018-02-18T01:18:56.903Z,4.30
2018-02-18T01:19:57.328Z,4.16
2018-02-18T01:22:07.197Z,4.13
2018-02-18T01:23:07.602Z,4.05
2018-02-18T01:25:02.204Z,4.13
2018-02-18T01:26:02.614Z,4.26
2018-02-18T01:27:58.193Z,4.28
2018-02-18T01:28:58.595Z,4.24
2018-02-18T01:32:26.868Z,4.31
2018-02-18T01:33:27.280Z,4.40
2018-02-18T01:35:22.859Z,4.41
2018-02-18T01:36:23.272Z,4.55
2018-02-18T01:38:17.845Z,4.63
2018-02-18T01:39:18.285Z,4.22
2018-02-18T01:41:12.874Z,4.34
2018-02-18T01:42:13.279Z,4.31
2018-02-18T01:44:07.864Z,4.40
2018-02-18T01:45:08.287Z,4.34
2018-02-18T01:47:02.878Z,4.12
2018-02-18T01:48:03.286Z,4.22
2018-02-18T01:49:57.868Z,4.26
2018-02-18T01:50:58.290Z,4.34
2018-02-18T01:51:58.712Z,4.42
2018-02-18T01:52:59.145Z,4.42
2018-02-18T01:53:59.552Z,4.38
2018-02-18T01:54:59.973Z,4.05
2018-02-18T01:57:33.547Z,4.05
2018-02-18T01:58:33.930Z,3.99
2018-02-18T02:00:28.703Z,3.95
2018-02-18T02:01:29.138Z,3.98
2018-02-18T02:03:24.421Z,3.73
2018-02-18T02:04:24.793Z,3.80
2018-02-18T02:06:19.433Z,3.98
2018-02-18T02:07:19.822Z,3.83
2018-02-18T02:09:14.395Z,3.74
2018-02-18T02:10:14.821Z,3.80
2018-02-18T02:12:09.415Z,3.86
2018-02-18T02:13:09.828Z,3.95
2018-02-18T02:15:04.400Z,4.14
2018-02-18T02:16:04.825Z,3.98
2018-02-18T02:17:59.420Z,4.02
2018-02-18T02:18:59.824Z,3.92
2018-02-18T02:20:54.405Z,3.96
2018-02-18T02:21:54.827Z,3.91
2018-02-18T02:23:49.421Z,3.87
2018-02-18T02:24:49.831Z,3.99
2018-02-18T02:26:44.439Z,3.92
2018-02-18T02:27:44.837Z,3.87
2018-02-18T02:29:39.443Z,3.70
2018-02-18T02:30:39.948Z,3.68
2018-02-18T02:34:08.397Z,3.87
2018-02-18T02:35:08.788Z,3.83
2018-02-18T02:37:04.358Z,3.65
2018-02-18T02:38:04.773Z,3.66
2018-02-18T02:41:34.088Z,3.83
2018-02-18T02:42:34.495Z,3.65
2018-02-18T02:45:08.056Z,3.69
2018-02-18T02:46:08.461Z,3.73
2018-02-18T02:48:03.450Z,3.99
2018-02-18T02:49:03.869Z,4.19
2018-02-18T02:50:58.462Z,4.02
2018-02-18T02:51:58.884Z,3.99
2018-02-18T02:53:55.710Z,3.88
2018-02-18T02:54:56.127Z,3.86
2018-02-18T02:57:06.260Z,3.77
2018-02-18T03:01:18.669Z,3.81
2018-02-18T03:02:19.072Z,3.76
2018-02-18T03:04:14.664Z,3.78
2018-02-18T03:08:37.141Z,3.73
2018-02-18T03:09:37.570Z,3.92
2018-02-18T03:13:05.300Z,4.06
